createdAt,value
2023-03-11T00:03:36.334Z,18.38
2023-03-11T00:08:38.444Z,16.98
2023-03-11T00:13:41.577Z,19.52
2023-03-11T00:18:43.845Z,18.17
2023-03-11T00:23:46.728Z,17.38
2023-03-11T00:28:49.682Z,16.10
2023-03-11T00:33:51.901Z,16.90
2023-03-11T00:38:54.094Z,19.63
2023-03-11T00:43:56.291Z,15.30
2023-03-11T00:48:58.688Z,15.82
2023-03-11T00:54:01.568Z,15.55
2023-03-11T00:59:05.448Z,16.88
2023-03-11T01:04:07.795Z,18.30
2023-03-11T01:09:09.943Z,18.25
2023-03-11T01:14:12.074Z,20.58
2023-03-11T01:19:14.287Z,21.52
2023-03-11T01:24:16.518Z,20.42
2023-03-11T01:29:18.723Z,18.83
2023-03-11T01:34:20.871Z,16.70
2023-03-11T01:39:23.073Z,17.73
2023-03-11T01:44:25.220Z,18.63
2023-03-11T01:49:28.306Z,19.70
2023-03-11T01:54:32.319Z,17.95
2023-03-11T01:59:37.614Z,18.67
2023-03-11T02:04:40.855Z,17.92
2023-03-11T02:09:43.122Z,18.95
2023-03-11T02:14:48.741Z,17.90
2023-03-11T02:20:12.538Z,17.10
2023-03-11T02:25:48.853Z,17.77
2023-03-11T02:30:52.326Z,18.73
2023-03-11T02:35:55.287Z,18.08
2023-03-11T02:41:01.553Z,19.75
2023-03-11T02:46:05.614Z,17.27
2023-03-11T02:51:08.232Z,17.80
2023-03-11T02:56:11.461Z,17.42
2023-03-11T03:01:13.707Z,17.73
2023-03-11T03:06:19.693Z,23.27
2023-03-11T03:11:24.054Z,17.88
2023-03-11T03:16:26.332Z,15.93
2023-03-11T03:21:29.651Z,18.30
2023-03-11T03:26:32.266Z,17.08
2023-03-11T03:31:34.903Z,16.83
2023-03-11T03:36:37.956Z,17.48
2023-03-11T03:41:40.694Z,19.63
2023-03-11T03:46:43.885Z,19.98
2023-03-11T03:51:46.239Z,16.88
2023-03-11T03:56:57.837Z,16.58
2023-03-11T04:02:00.519Z,16.02
2023-03-11T04:07:06.001Z,14.32
2023-03-11T04:12:13.412Z,16.50
2023-03-11T04:17:18.004Z,15.10
2023-03-11T04:22:20.423Z,15.93
2023-03-11T04:27:22.761Z,15.63
2023-03-11T04:32:25.662Z,14.65
2023-03-11T04:37:28.655Z,14.73
2023-03-11T04:42:31.431Z,16.40
2023-03-11T04:47:33.732Z,16.65
2023-03-11T04:52:36.581Z,16.67
2023-03-11T04:57:38.849Z,15.70
2023-03-11T05:02:41.726Z,15.95
2023-03-11T05:07:44.142Z,18.77
2023-03-11T05:12:48.221Z,18.30
2023-03-11T05:17:50.435Z,17.92
2023-03-11T05:22:52.750Z,15.18
2023-03-11T05:27:54.911Z,14.32
2023-03-11T05:32:57.248Z,13.90
2023-03-11T05:38:00.712Z,13.05
2023-03-11T05:43:05.033Z,13.95
2023-03-11T05:48:11.959Z,12.90
2023-03-11T05:53:14.218Z,13.15
2023-03-11T05:58:16.509Z,13.00
2023-03-11T06:03:18.686Z,12.30
2023-03-11T06:08:22.339Z,11.55
2023-03-11T06:13:24.811Z,12.82
2023-03-11T06:18:28.748Z,14.27
2023-03-11T06:23:31.453Z,19.70
2023-03-11T06:28:34.883Z,23.27
2023-03-11T06:33:37.639Z,21.05
2023-03-11T06:38:40.084Z,21.20
2023-03-11T06:43:42.587Z,18.20
2023-03-11T06:48:46.103Z,15.43
2023-03-11T06:53:52.070Z,16.23
2023-03-11T06:58:55.927Z,12.93
2023-03-11T07:04:00.741Z,13.23
2023-03-11T07:09:03.687Z,12.85
2023-03-11T07:14:08.300Z,12.13
2023-03-11T07:19:14.369Z,14.15
2023-03-11T07:24:16.806Z,12.77
2023-03-11T07:29:20.370Z,12.38
2023-03-11T07:34:22.553Z,12.30
2023-03-11T07:39:24.747Z,14.02
2023-03-11T07:44:26.856Z,14.55
2023-03-11T07:49:29.027Z,14.20
2023-03-11T07:54:31.208Z,14.77
2023-03-11T07:59:33.345Z,17.85
2023-03-11T08:04:35.958Z,15.65
2023-03-11T08:09:38.263Z,18.13
2023-03-11T08:14:40.433Z,15.52
2023-03-11T08:19:42.584Z,17.23
2023-03-11T08:24:44.708Z,17.42
2023-03-11T08:29:46.950Z,16.73
2023-03-11T08:34:49.087Z,17.52
2023-03-11T08:39:51.536Z,21.48
2023-03-11T08:44:53.622Z,22.48
2023-03-11T08:49:55.749Z,22.38
2023-03-11T08:54:57.943Z,21.50
2023-03-11T09:00:00.169Z,24.60
2023-03-11T09:05:02.460Z,27.02
2023-03-11T09:10:05.129Z,28.42
2023-03-11T09:15:08.179Z,27.55
2023-03-11T09:20:12.563Z,25.65
2023-03-11T09:25:15.186Z,28.45
2023-03-11T09:30:17.569Z,26.70
2023-03-11T09:35:19.914Z,27.65
2023-03-11T09:40:23.549Z,25.23
2023-03-11T09:45:28.218Z,24.35
2023-03-11T09:50:31.833Z,25.80
2023-03-11T09:55:34.041Z,23.60
2023-03-11T10:00:36.582Z,23.92
2023-03-11T10:05:39.564Z,23.10
2023-03-11T10:10:50.572Z,22.75
2023-03-11T10:16:04.992Z,23.58
2023-03-11T10:21:16.902Z,26.27
2023-03-11T10:26:37.339Z,26.40
2023-03-11T10:31:39.554Z,24.92
2023-03-11T10:36:49.634Z,24.08
2023-03-11T10:41:56.086Z,25.85
2023-03-11T10:52:03.617Z,25.95
2023-03-11T10:57:26.297Z,27.15
2023-03-11T11:02:38.769Z,26.17
2023-03-11T11:07:41.460Z,23.00
2023-03-11T11:12:54.455Z,21.90
2023-03-11T11:18:04.386Z,20.55
2023-03-11T11:23:06.754Z,19.88
2023-03-11T11:28:19.684Z,18.45
2023-03-11T11:33:27.973Z,17.50
2023-03-11T11:38:31.429Z,17.70
2023-03-11T11:43:41.467Z,19.13
2023-03-11T11:48:52.487Z,20.48
2023-03-11T11:54:03.253Z,19.02
2023-03-11T11:59:09.199Z,19.15
2023-03-11T12:04:27.546Z,19.10
2023-03-11T12:09:48.268Z,21.25
2023-03-11T12:14:58.195Z,21.48
2023-03-11T12:20:07.015Z,21.48
2023-03-11T12:25:22.325Z,21.67
2023-03-11T12:30:27.578Z,19.20
2023-03-11T12:35:31.334Z,19.80
2023-03-11T12:40:56.267Z,18.55
2023-03-11T12:46:01.964Z,17.08
2023-03-11T12:51:06.002Z,18.10
2023-03-11T12:56:20.027Z,16.63
2023-03-11T13:01:30.280Z,16.08
2023-03-11T13:06:32.399Z,15.27
2023-03-11T13:11:34.505Z,14.48
2023-03-11T13:16:37.656Z,13.05
2023-03-11T13:21:39.881Z,12.15
2023-03-11T13:27:00.844Z,13.30
2023-03-11T13:32:23.871Z,14.40
2023-03-11T13:37:26.062Z,15.40
2023-03-11T13:42:47.032Z,12.35
2023-03-11T13:47:49.843Z,12.68
2023-03-11T13:52:55.611Z,13.07
2023-03-11T13:57:57.851Z,11.95
2023-03-11T14:03:02.769Z,13.73
2023-03-11T14:08:27.107Z,13.27
2023-03-11T14:13:30.316Z,14.07
2023-03-11T14:18:37.184Z,15.70
2023-03-11T14:23:46.819Z,12.82
2023-03-11T14:28:53.399Z,12.70
2023-03-11T14:34:13.005Z,12.32
2023-03-11T14:39:34.802Z,12.80
2023-03-11T14:44:39.729Z,12.57
2023-03-11T14:49:42.235Z,12.20
2023-03-11T14:54:45.170Z,13.00
2023-03-11T14:59:49.480Z,10.98
2023-03-11T15:04:52.161Z,11.43
2023-03-11T15:09:54.601Z,10.75
2023-03-11T15:14:56.697Z,13.30
2023-03-11T15:19:59.211Z,12.73
2023-03-11T15:25:02.534Z,12.43
2023-03-11T15:30:16.468Z,11.63
2023-03-11T15:35:20.457Z,10.68
2023-03-11T15:40:35.260Z,10.38
2023-03-11T15:45:44.694Z,8.85
2023-03-11T15:50:53.395Z,10.65
2023-03-11T15:56:06.531Z,10.60
2023-03-11T16:01:09.882Z,9.05
2023-03-11T16:06:11.985Z,8.13
2023-03-11T16:11:14.350Z,9.43
2023-03-11T16:16:17.382Z,10.18
2023-03-11T16:21:21.472Z,10.68
2023-03-11T16:26:23.665Z,10.60
2023-03-11T16:31:25.985Z,10.10
2023-03-11T16:36:28.253Z,12.18
2023-03-11T16:41:34.517Z,10.70
2023-03-11T16:46:36.777Z,10.30
2023-03-11T16:51:39.133Z,9.95
2023-03-11T16:56:42.023Z,9.60
2023-03-11T17:01:44.181Z,10.77
2023-03-11T17:06:46.531Z,9.77
2023-03-11T17:11:50.197Z,9.65
2023-03-11T17:16:52.419Z,9.88
2023-03-11T17:21:54.597Z,8.48
2023-03-11T17:26:56.779Z,7.78
2023-03-11T17:31:58.879Z,8.20
2023-03-11T17:37:02.433Z,9.10
2023-03-11T17:42:05.708Z,7.78
2023-03-11T17:47:08.105Z,7.20
2023-03-11T17:52:10.307Z,7.30
2023-03-11T17:57:12.854Z,7.40
2023-03-11T18:02:15.049Z,6.00
2023-03-11T18:07:17.260Z,6.88
2023-03-11T18:12:20.314Z,6.55
2023-03-11T18:17:22.503Z,7.00
2023-03-11T18:22:24.587Z,6.75
2023-03-11T18:27:26.869Z,5.45
2023-03-11T18:32:29.059Z,5.82
2023-03-11T18:37:32.477Z,5.25
2023-03-11T18:42:35.504Z,6.03
2023-03-11T18:47:39.007Z,5.47
2023-03-11T18:52:41.229Z,3.35
2023-03-11T18:57:43.674Z,3.55
2023-03-11T19:02:46.259Z,3.70
2023-03-11T19:07:48.399Z,2.63
2023-03-11T19:12:51.350Z,3.03
2023-03-11T19:18:05.966Z,3.15
2023-03-11T19:23:09.497Z,4.57
2023-03-11T19:28:11.565Z,3.95
2023-03-11T19:33:13.748Z,4.38
2023-03-11T19:38:15.891Z,5.32
2023-03-11T19:43:19.548Z,5.32
2023-03-11T19:48:21.770Z,5.47
2023-03-11T19:53:23.986Z,4.65
2023-03-11T19:58:29.917Z,4.57
2023-03-11T20:03:33.867Z,4.40
2023-03-11T20:08:37.592Z,3.58
2023-03-11T20:13:43.203Z,3.22
2023-03-11T20:18:46.258Z,3.30
2023-03-11T20:23:49.292Z,2.85
2023-03-11T20:28:55.100Z,2.55
2023-03-11T20:33:58.066Z,2.85
2023-03-11T20:39:00.283Z,2.60
2023-03-11T20:44:02.524Z,2.53
2023-03-11T20:49:04.744Z,2.15
2023-03-11T20:54:06.907Z,2.10
2023-03-11T20:59:10.866Z,2.08
2023-03-11T21:04:15.183Z,2.60
2023-03-11T21:09:19.335Z,2.30
2023-03-11T21:14:21.541Z,1.90
2023-03-11T21:19:23.844Z,2.65
2023-03-11T21:24:26.049Z,2.35
2023-03-11T21:29:30.913Z,2.38
2023-03-11T21:34:33.230Z,2.45
2023-03-11T21:39:35.516Z,2.42
2023-03-11T21:44:37.811Z,2.10
2023-03-11T21:49:40.127Z,2.00
2023-03-11T21:54:42.426Z,2.47
2023-03-11T21:59:44.853Z,2.17
2023-03-11T22:04:47.124Z,2.60
2023-03-11T22:09:49.476Z,2.20
2023-03-11T22:14:51.757Z,1.88
2023-03-11T22:19:54.349Z,2.00
2023-03-11T22:24:56.546Z,2.00
2023-03-11T22:29:58.703Z,2.47
2023-03-11T22:35:00.966Z,2.53
2023-03-11T22:40:04.817Z,2.38
2023-03-11T22:45:07.787Z,2.53
2023-03-11T22:50:10.495Z,2.38
2023-03-11T22:55:12.668Z,3.22
2023-03-11T23:00:21.048Z,2.55
2023-03-11T23:05:23.920Z,3.03
2023-03-11T23:10:26.048Z,3.17
2023-03-11T23:15:28.152Z,3.20
2023-03-11T23:20:30.300Z,3.65
2023-03-11T23:25:32.905Z,3.72
2023-03-11T23:30:35.304Z,4.50
2023-03-11T23:35:40.489Z,4.60
2023-03-11T23:40:42.629Z,5.03
2023-03-11T23:45:44.825Z,5.03
2023-03-11T23:50:47.814Z,4.40
2023-03-11T23:55:50.997Z,4.65
